Stolt Jade — ZCSQ4 — position and weather

sailwx.info

Track history (hours):
 
Tides and Currents Weather Stations Pressure Air Temp Water Temp Dewpoint Dewpoint Depression Visibility Wind Speed Wind Dir Waves Ship Positions

Stolt Jade

Last reported at 2016-Aug-17 18:22 UTC. Time now 2016-Aug-28 10:17 UTC.
Position N 01°59' E 102°13'.
Warning: this ship's position is 10 days out of date.

Length 175 m; draft 6.5 m.

Type: Ship. MMSI: 319439000.

Date/timePositionNaut miles runAvg speedWind from/ knotsBaromVisibWave heightAir tempDewpointWater temp
2016-Aug-17 18:22N 01°59' E 102°13'1316.4
2016-Aug-17 17:33N 01°53' E 102°25'1616.3
2016-Aug-17 16:33N 01°46' E 102°40'7114.2
2016-Aug-17 11:33N 01°11' E 103°42'1 0.3
2016-Aug-17 08:30N 01°12' E 103°42'0 0.0
2016-Aug-17 07:27N 01°12' E 103°42'0 0.0
2016-Aug-17 05:30N 01°12' E 103°42'0 0.1
2016-Aug-17 04:24N 01°12' E 103°42'0 0.0
2016-Aug-17 03:18N 01°12' E 103°42'0 0.1
2016-Aug-17 02:27N 01°12' E 103°42'0 0.1
2016-Aug-17 01:30N 01°12' E 103°42'0 0.0
2016-Aug-16 21:30N 01°12' E 103°42'0 0.0
2016-Aug-16 19:30N 01°12' E 103°42'0 0.0
2016-Aug-16 18:06N 01°12' E 103°42'0 0.0
2016-Aug-16 14:24N 01°12' E 103°42'0 0.1
2016-Aug-16 13:15N 01°12' E 103°42'0 0.0
2016-Aug-16 12:15N 01°12' E 103°42'0 0.2
2016-Aug-16 11:33N 01°12' E 103°42'4 4.4
2016-Aug-16 10:32N 01°09' E 103°45'7 6.5
2016-Aug-16 09:24N 01°12' E 103°52'1011.9
2016-Aug-16 08:33N 01°16' E 104°02'  
2016-Aug-11 07:33N 22°17' E 120°01'1414.4
2016-Aug-11 06:33N 22°28' E 120°10'10 9.8
2016-Aug-11 05:33N 22°34' E 120°19'1 0.1
2016-Aug-10 05:33N 22°35' E 120°18'6 5.8
2016-Aug-10 04:33N 22°38' E 120°12'1111.3
2016-Aug-10 03:33N 22°44' E 120°02'8712.3
2016-Aug-09 20:28N 23°51' E 119°01'1614.4
2016-Aug-09 19:22N 24°06' E 119°06'1114.0
2016-Aug-09 18:33N 24°16' E 119°10'1413.8
2016-Aug-09 17:33N 24°26' E 119°21'1513.4
2016-Aug-09 16:25N 24°37' E 119°32'1413.3
2016-Aug-09 15:23N 24°47' E 119°43'40610.1
2016-Aug-07 23:14N 31°16' E 121°52'1013.8
2016-Aug-07 22:32N 31°20' E 121°41'1111.5
2016-Aug-07 21:32N 31°26' E 121°30'6 6.5
2016-Aug-07 20:33N 31°30' E 121°25'5 3.7
2016-Aug-07 19:09N 31°34' E 121°21'  
Track history (hours):
 
Tides and Currents Weather Stations Pressure Air Temp Water Temp Dewpoint Dewpoint Depression Visibility Wind Speed Wind Dir Waves Ship Positions

Stolt Jade

Last reported at 2016-Aug-17 18:22 UTC. Time now 2016-Aug-28 10:17 UTC.
Position N 01°59' E 102°13'.
Warning: this ship's position is 10 days out of date.

Length 175 m; draft 6.5 m.

Type: Ship. MMSI: 319439000.

Date/timePositionNaut miles runAvg speedWind from/ knotsBaromVisibWave heightAir tempDewpointWater temp
2016-Aug-17 18:22N 01°59' E 102°13'1316.4
2016-Aug-17 17:33N 01°53' E 102°25'1616.3
2016-Aug-17 16:33N 01°46' E 102°40'7114.2
2016-Aug-17 11:33N 01°11' E 103°42'1 0.3
2016-Aug-17 08:30N 01°12' E 103°42'0 0.0
2016-Aug-17 07:27N 01°12' E 103°42'0 0.0
2016-Aug-17 05:30N 01°12' E 103°42'0 0.1
2016-Aug-17 04:24N 01°12' E 103°42'0 0.0
2016-Aug-17 03:18N 01°12' E 103°42'0 0.1
2016-Aug-17 02:27N 01°12' E 103°42'0 0.1
2016-Aug-17 01:30N 01°12' E 103°42'0 0.0
2016-Aug-16 21:30N 01°12' E 103°42'0 0.0
2016-Aug-16 19:30N 01°12' E 103°42'0 0.0
2016-Aug-16 18:06N 01°12' E 103°42'0 0.0
2016-Aug-16 14:24N 01°12' E 103°42'0 0.1
2016-Aug-16 13:15N 01°12' E 103°42'0 0.0
2016-Aug-16 12:15N 01°12' E 103°42'0 0.2
2016-Aug-16 11:33N 01°12' E 103°42'4 4.4
2016-Aug-16 10:32N 01°09' E 103°45'7 6.5
2016-Aug-16 09:24N 01°12' E 103°52'1011.9
2016-Aug-16 08:33N 01°16' E 104°02'  
2016-Aug-11 07:33N 22°17' E 120°01'1414.4
2016-Aug-11 06:33N 22°28' E 120°10'10 9.8
2016-Aug-11 05:33N 22°34' E 120°19'1 0.1
2016-Aug-10 05:33N 22°35' E 120°18'6 5.8
2016-Aug-10 04:33N 22°38' E 120°12'1111.3
2016-Aug-10 03:33N 22°44' E 120°02'8712.3
2016-Aug-09 20:28N 23°51' E 119°01'1614.4
2016-Aug-09 19:22N 24°06' E 119°06'1114.0
2016-Aug-09 18:33N 24°16' E 119°10'1413.8
2016-Aug-09 17:33N 24°26' E 119°21'1513.4
2016-Aug-09 16:25N 24°37' E 119°32'1413.3
2016-Aug-09 15:23N 24°47' E 119°43'40610.1
2016-Aug-07 23:14N 31°16' E 121°52'1013.8
2016-Aug-07 22:32N 31°20' E 121°41'1111.5
2016-Aug-07 21:32N 31°26' E 121°30'6 6.5
2016-Aug-07 20:33N 31°30' E 121°25'5 3.7
2016-Aug-07 19:09N 31°34' E 121°21'  

Dump ship's entire track history